createdAt,value
2022-09-04T00:00:14.052Z,13.51
2022-09-04T00:03:18.721Z,13.50
2022-09-04T00:05:51.903Z,13.28
2022-09-04T00:08:39.767Z,13.53
2022-09-04T00:11:16.777Z,13.51
2022-09-04T00:13:49.786Z,13.54
2022-09-04T00:16:23.208Z,13.52
2022-09-04T00:18:59.656Z,13.52
2022-09-04T00:21:35.882Z,13.42
2022-09-04T00:24:07.973Z,13.52
2022-09-04T00:26:48.884Z,13.53
2022-09-04T00:29:28.635Z,13.53
2022-09-04T00:32:03.510Z,13.35
2022-09-04T00:34:52.548Z,13.58
2022-09-04T00:37:27.458Z,13.59
2022-09-04T00:43:28.130Z,13.54
2022-09-04T00:46:19.479Z,13.33
2022-09-04T00:49:36.521Z,13.62
2022-09-04T00:52:21.285Z,13.55
2022-09-04T00:55:17.742Z,13.56
2022-09-04T00:58:10.794Z,13.47
2022-09-04T01:00:40.324Z,13.37
2022-09-04T01:03:36.436Z,13.37
2022-09-04T01:06:30.550Z,13.42
2022-09-04T01:09:38.791Z,13.50
2022-09-04T01:12:20.890Z,13.59
2022-09-04T01:14:57.178Z,13.14
2022-09-04T01:17:33.188Z,13.35
2022-09-04T01:20:13.364Z,13.41
2022-09-04T01:23:13.503Z,13.47
2022-09-04T01:26:09.086Z,13.49
2022-09-04T01:28:51.581Z,13.00
2022-09-04T01:31:28.184Z,13.46
2022-09-04T01:34:14.480Z,13.46
2022-09-04T01:36:50.646Z,13.46
2022-09-04T01:39:22.597Z,13.51
2022-09-04T01:42:00.963Z,12.79
2022-09-04T01:44:31.038Z,13.29
2022-09-04T01:47:11.815Z,13.34
2022-09-04T01:49:45.561Z,13.34
2022-09-04T01:52:37.849Z,13.81
2022-09-04T01:55:20.167Z,13.21
2022-09-04T01:58:05.374Z,13.24
2022-09-04T02:00:39.743Z,13.12
2022-09-04T02:03:22.126Z,13.26
2022-09-04T02:06:03.827Z,13.18
2022-09-04T02:08:50.862Z,13.28
2022-09-04T02:11:27.813Z,13.18
2022-09-04T02:14:17.827Z,13.10
2022-09-04T02:17:08.532Z,13.17
2022-09-04T02:19:54.522Z,13.20
2022-09-04T02:22:31.986Z,12.94
2022-09-04T02:25:07.554Z,13.07
2022-09-04T02:27:46.926Z,13.02
2022-09-04T02:30:19.557Z,12.87
2022-09-04T02:32:57.866Z,13.02
2022-09-04T02:35:36.780Z,12.92
2022-09-04T02:38:18.407Z,13.00
2022-09-04T02:40:53.268Z,12.97
2022-09-04T02:43:48.767Z,12.96
2022-09-04T02:46:28.975Z,12.81
2022-09-04T02:49:10.078Z,12.89
2022-09-04T02:51:55.795Z,12.93
2022-09-04T02:54:43.454Z,12.87
2022-09-04T02:57:27.355Z,12.86
2022-09-04T03:00:08.286Z,12.80
2022-09-04T03:02:46.482Z,12.66
2022-09-04T03:05:22.525Z,12.49
2022-09-04T03:07:59.933Z,12.45
2022-09-04T03:10:35.063Z,12.44
2022-09-04T03:13:09.968Z,12.42
2022-09-04T03:15:45.306Z,12.52
2022-09-04T03:18:30.166Z,12.37
2022-09-04T03:21:06.385Z,12.48
2022-09-04T03:23:44.442Z,12.47
2022-09-04T03:26:22.762Z,12.40
2022-09-04T03:29:02.289Z,12.31
2022-09-04T03:31:37.384Z,12.35
2022-09-04T03:34:30.797Z,12.37
2022-09-04T03:37:22.534Z,12.32
2022-09-04T03:40:05.551Z,12.38
2022-09-04T03:42:49.254Z,12.38
2022-09-04T03:45:29.232Z,12.33
2022-09-04T03:48:16.717Z,12.14
2022-09-04T03:50:54.349Z,11.98
2022-09-04T03:53:33.605Z,11.98
2022-09-04T03:56:30.327Z,11.99
2022-09-04T03:59:05.547Z,11.86
2022-09-04T04:01:48.527Z,12.07
2022-09-04T04:04:48.085Z,11.90
2022-09-04T04:07:30.349Z,12.05
2022-09-04T04:10:15.197Z,11.87
2022-09-04T04:13:05.393Z,11.84
2022-09-04T04:15:52.323Z,11.79
2022-09-04T04:18:39.624Z,11.59
2022-09-04T04:21:16.507Z,11.91
2022-09-04T04:24:05.283Z,11.88
2022-09-04T04:26:54.904Z,11.86
2022-09-04T04:30:08.102Z,11.88
2022-09-04T04:33:19.439Z,11.91
2022-09-04T04:35:58.372Z,11.65
2022-09-04T04:38:46.188Z,11.47
2022-09-04T04:41:54.459Z,11.59
2022-09-04T04:44:53.423Z,11.58
2022-09-04T04:47:41.181Z,11.56
2022-09-04T04:50:17.414Z,11.53
2022-09-04T04:53:01.763Z,11.62
2022-09-04T04:55:40.752Z,11.74
2022-09-04T04:58:38.106Z,11.58
2022-09-04T05:01:16.025Z,11.70
2022-09-04T05:04:05.102Z,11.75
2022-09-04T05:06:42.421Z,11.75
2022-09-04T05:09:21.271Z,11.73
2022-09-04T05:11:57.937Z,11.68
2022-09-04T05:14:39.065Z,11.70
2022-09-04T05:17:19.664Z,11.60
2022-09-04T05:20:10.995Z,11.67
2022-09-04T05:22:45.348Z,11.65
2022-09-04T05:25:22.503Z,11.70
2022-09-04T05:28:02.949Z,11.72
2022-09-04T05:30:44.116Z,11.91
2022-09-04T05:33:23.646Z,11.82
2022-09-04T05:36:01.099Z,11.93
2022-09-04T05:38:37.267Z,11.93
2022-09-04T05:41:08.683Z,12.09
2022-09-04T05:44:02.014Z,12.06
2022-09-04T05:46:51.798Z,12.28
2022-09-04T05:49:42.679Z,12.29
2022-09-04T05:52:48.960Z,12.46
2022-09-04T05:55:43.671Z,12.66
2022-09-04T05:58:35.228Z,12.74
2022-09-04T06:01:20.583Z,13.00
2022-09-04T06:04:24.682Z,13.05
2022-09-04T06:07:04.741Z,13.14
2022-09-04T06:09:54.895Z,13.33
2022-09-04T06:13:08.295Z,13.44
2022-09-04T06:15:44.764Z,13.51
2022-09-04T06:18:36.162Z,13.53
2022-09-04T06:21:55.257Z,13.82
2022-09-04T06:24:39.661Z,14.02
2022-09-04T06:27:35.526Z,14.09
2022-09-04T06:30:08.785Z,14.21
2022-09-04T06:33:04.124Z,14.40
2022-09-04T06:36:05.641Z,14.43
2022-09-04T06:38:50.891Z,14.58
2022-09-04T06:41:55.558Z,14.84
2022-09-04T06:44:41.233Z,14.93
2022-09-04T06:47:25.526Z,15.08
2022-09-04T06:50:13.769Z,15.34
2022-09-04T06:53:00.007Z,15.46
2022-09-04T06:55:42.563Z,15.52
2022-09-04T06:58:45.678Z,15.70
2022-09-04T07:01:21.097Z,15.66
2022-09-04T07:04:07.359Z,16.01
2022-09-04T07:07:00.251Z,16.00
2022-09-04T07:09:34.727Z,16.21
2022-09-04T07:12:36.282Z,16.15
2022-09-04T07:15:44.717Z,16.17
2022-09-04T07:18:32.951Z,16.26
2022-09-04T07:21:11.079Z,16.48
2022-09-04T07:23:50.085Z,16.22
2022-09-04T07:26:28.347Z,16.79
2022-09-04T07:29:16.140Z,16.67
2022-09-04T07:31:51.713Z,17.00
2022-09-04T07:34:27.830Z,17.11
2022-09-04T07:37:04.175Z,17.16
2022-09-04T07:39:39.117Z,17.26
2022-09-04T07:42:15.066Z,17.61
2022-09-04T07:44:59.728Z,17.58
2022-09-04T07:47:38.010Z,17.75
2022-09-04T07:50:13.791Z,18.00
2022-09-04T07:53:07.325Z,17.95
2022-09-04T07:55:42.181Z,18.05
2022-09-04T07:58:49.419Z,18.30
2022-09-04T08:01:40.485Z,18.50
2022-09-04T08:04:33.161Z,18.44
2022-09-04T08:07:11.294Z,17.69
2022-09-04T08:10:05.475Z,18.34
2022-09-04T08:13:09.872Z,18.63
2022-09-04T08:15:46.463Z,18.64
2022-09-04T08:18:43.165Z,17.44
2022-09-04T08:21:23.474Z,18.94
2022-09-04T08:24:29.273Z,19.11
2022-09-04T08:27:11.166Z,19.22
2022-09-04T08:29:54.834Z,19.44
2022-09-04T08:32:46.842Z,18.55
2022-09-04T08:35:25.747Z,19.61
2022-09-04T08:38:27.812Z,19.89
2022-09-04T08:41:34.542Z,20.08
2022-09-04T08:45:08.090Z,20.11
2022-09-04T08:48:21.080Z,20.25
2022-09-04T08:51:34.193Z,20.56
2022-09-04T08:54:37.602Z,20.75
2022-09-04T08:57:58.359Z,21.13
2022-09-04T09:00:44.683Z,21.43
2022-09-04T09:03:42.266Z,21.50
2022-09-04T09:06:57.380Z,21.75
2022-09-04T09:10:03.606Z,21.88
2022-09-04T09:13:19.287Z,22.27
2022-09-04T09:16:07.397Z,21.20
2022-09-04T09:18:40.573Z,21.14
2022-09-04T09:21:13.638Z,21.37
2022-09-04T09:24:10.887Z,21.09
2022-09-04T09:26:51.084Z,21.21
2022-09-04T09:30:06.196Z,20.90
2022-09-04T09:33:20.543Z,20.63
2022-09-04T09:36:46.587Z,21.16
2022-09-04T09:39:58.833Z,21.55
2022-09-04T09:43:01.139Z,21.77
2022-09-04T09:46:19.688Z,22.40
2022-09-04T09:49:43.154Z,22.74
2022-09-04T09:53:14.359Z,22.88
2022-09-04T09:56:21.728Z,22.89
2022-09-04T09:59:38.049Z,23.19
2022-09-04T10:02:54.737Z,23.00
2022-09-04T10:06:14.093Z,23.00
2022-09-04T10:09:29.438Z,22.73
2022-09-04T10:12:41.442Z,22.64
2022-09-04T10:15:48.371Z,22.39
2022-09-04T10:19:07.047Z,22.37
2022-09-04T10:22:36.766Z,22.23
2022-09-04T10:25:44.398Z,22.26
2022-09-04T10:28:47.406Z,22.17
2022-09-04T10:31:56.989Z,22.23
2022-09-04T10:35:20.851Z,22.14
2022-09-04T10:38:26.717Z,22.24
2022-09-04T10:41:39.178Z,22.80
2022-09-04T10:44:51.513Z,22.80
2022-09-04T10:47:45.044Z,22.87
2022-09-04T10:50:28.772Z,23.01
2022-09-04T10:53:51.402Z,22.25
2022-09-04T10:56:28.950Z,22.82
2022-09-04T10:59:21.226Z,22.45
2022-09-04T11:02:14.092Z,22.91
2022-09-04T11:05:15.660Z,22.94
2022-09-04T11:08:20.711Z,22.80
2022-09-04T11:11:15.241Z,22.64
2022-09-04T11:14:25.658Z,22.41
2022-09-04T11:17:35.977Z,22.30
2022-09-04T11:20:58.472Z,22.10
2022-09-04T11:24:28.041Z,21.88
2022-09-04T11:27:39.937Z,22.19
2022-09-04T11:30:15.672Z,22.16
2022-09-04T11:33:25.369Z,22.00
2022-09-04T11:36:35.429Z,22.01
2022-09-04T11:39:47.737Z,22.04
2022-09-04T11:42:31.122Z,21.92
2022-09-04T11:45:57.717Z,22.02
2022-09-04T11:48:58.104Z,21.51
2022-09-04T11:52:05.034Z,22.12
2022-09-04T11:55:16.896Z,22.33
2022-09-04T11:58:17.541Z,21.02
2022-09-04T12:00:58.432Z,22.69
2022-09-04T12:04:00.811Z,23.10
2022-09-04T12:06:51.149Z,23.12
2022-09-04T12:09:52.751Z,23.34
2022-09-04T12:12:57.919Z,23.57
2022-09-04T12:15:55.717Z,23.21
2022-09-04T12:18:59.820Z,22.04
2022-09-04T12:21:53.057Z,23.04
2022-09-04T12:24:46.273Z,23.36
2022-09-04T12:27:48.073Z,23.87
2022-09-04T12:30:23.652Z,23.93
2022-09-04T12:33:24.904Z,24.34
2022-09-04T12:36:37.274Z,25.15
2022-09-04T12:39:55.184Z,25.22
2022-09-04T12:42:30.133Z,24.95
2022-09-04T12:45:13.939Z,24.22
2022-09-04T12:47:57.208Z,24.66
2022-09-04T12:50:34.508Z,23.36
2022-09-04T12:53:52.465Z,23.92
2022-09-04T12:56:43.930Z,23.24
2022-09-04T12:59:36.889Z,24.19
2022-09-04T13:02:16.446Z,24.13
2022-09-04T13:04:55.732Z,24.23
2022-09-04T13:07:44.407Z,24.52
2022-09-04T13:10:26.975Z,25.06
2022-09-04T13:13:08.135Z,25.72
2022-09-04T13:15:48.546Z,25.92
2022-09-04T13:18:34.993Z,26.14
2022-09-04T13:21:15.874Z,26.12
2022-09-04T13:24:06.600Z,26.55
2022-09-04T13:27:04.639Z,27.11
2022-09-04T13:29:51.493Z,27.37
2022-09-04T13:32:46.436Z,26.45
2022-09-04T13:35:25.475Z,25.20
2022-09-04T13:38:27.554Z,26.06
2022-09-04T13:41:30.914Z,25.53
2022-09-04T13:44:25.754Z,25.18
2022-09-04T13:47:05.789Z,24.90
2022-09-04T13:49:40.064Z,24.72
2022-09-04T13:52:16.122Z,24.86
2022-09-04T13:54:52.687Z,25.05
2022-09-04T13:57:25.937Z,25.12
2022-09-04T13:59:59.249Z,25.24
2022-09-04T14:02:31.859Z,25.37
2022-09-04T14:05:17.168Z,25.98
2022-09-04T14:07:50.427Z,26.27
2022-09-04T14:10:23.473Z,25.65
2022-09-04T14:13:15.533Z,25.60
2022-09-04T14:16:04.363Z,25.45
2022-09-04T14:19:03.449Z,24.84
2022-09-04T14:21:49.558Z,24.66
2022-09-04T14:24:25.604Z,24.79
2022-09-04T14:27:07.015Z,25.09
2022-09-04T14:29:48.291Z,24.95
2022-09-04T14:32:25.366Z,24.55
2022-09-04T14:35:03.935Z,23.75
2022-09-04T14:38:02.513Z,24.58
2022-09-04T14:40:34.617Z,24.56
2022-09-04T14:43:13.285Z,24.21
2022-09-04T14:46:04.792Z,24.14
2022-09-04T14:48:40.439Z,24.32
2022-09-04T14:51:18.610Z,24.27
2022-09-04T14:53:50.138Z,24.32
2022-09-04T14:56:30.770Z,24.01
2022-09-04T14:59:08.667Z,23.95
2022-09-04T15:01:56.919Z,23.84
2022-09-04T15:04:33.692Z,23.90
2022-09-04T15:07:49.529Z,24.01
2022-09-04T15:10:25.879Z,24.03
2022-09-04T15:13:23.573Z,24.40
2022-09-04T15:15:56.502Z,24.67
2022-09-04T15:18:31.442Z,25.06
2022-09-04T15:21:05.052Z,25.61
2022-09-04T15:23:42.530Z,25.77
2022-09-04T15:26:19.914Z,26.34
2022-09-04T15:28:52.599Z,26.77
2022-09-04T15:31:30.603Z,27.03
2022-09-04T15:34:03.886Z,27.21
2022-09-04T15:36:32.817Z,27.24
2022-09-04T15:39:06.096Z,27.07
2022-09-04T15:41:42.098Z,27.40
2022-09-04T15:44:20.499Z,27.30
2022-09-04T15:47:02.897Z,27.39
2022-09-04T15:49:44.969Z,26.61
2022-09-04T15:52:33.355Z,26.22
2022-09-04T15:55:10.882Z,25.37
2022-09-04T15:57:56.043Z,25.63
2022-09-04T16:00:27.328Z,25.39
2022-09-04T16:03:06.972Z,25.33
2022-09-04T16:05:45.087Z,25.36
2022-09-04T16:08:23.492Z,25.24
2022-09-04T16:10:59.787Z,25.16
2022-09-04T16:13:46.548Z,25.13
2022-09-04T16:16:22.045Z,25.05
2022-09-04T16:19:03.232Z,25.05
2022-09-04T16:21:44.480Z,25.35
2022-09-04T16:24:17.999Z,25.15
2022-09-04T16:26:52.051Z,25.08
2022-09-04T16:29:36.682Z,25.08
2022-09-04T16:32:09.715Z,25.10
2022-09-04T16:34:47.964Z,24.93
2022-09-04T16:37:23.081Z,25.08
2022-09-04T16:40:04.981Z,25.18
2022-09-04T16:42:42.896Z,25.19
2022-09-04T16:45:18.233Z,25.34
2022-09-04T16:47:54.481Z,25.47
2022-09-04T16:50:28.449Z,25.53
2022-09-04T16:53:14.455Z,25.34
2022-09-04T16:55:53.761Z,25.40
2022-09-04T16:58:40.112Z,25.47
2022-09-04T17:01:17.284Z,25.47
2022-09-04T17:04:12.569Z,25.27
2022-09-04T17:07:00.094Z,25.33
2022-09-04T17:09:47.773Z,24.97
2022-09-04T17:12:26.293Z,25.16
2022-09-04T17:15:03.164Z,24.82
2022-09-04T17:17:33.987Z,24.79
2022-09-04T17:20:06.451Z,24.60
2022-09-04T17:28:54.266Z,24.47
2022-09-04T17:29:19.054Z,24.49
2022-09-04T17:29:29.518Z,23.84
2022-09-04T17:31:51.218Z,23.55
2022-09-04T17:40:35.700Z,23.94
2022-09-04T17:40:56.290Z,23.86
2022-09-04T17:41:40.285Z,23.52
2022-09-04T17:43:59.699Z,23.18
2022-09-04T17:46:39.017Z,23.05
2022-09-04T17:49:15.219Z,22.83
2022-09-04T17:51:51.613Z,22.72
2022-09-04T17:54:30.399Z,22.12
2022-09-04T17:57:02.880Z,22.45
2022-09-04T17:59:38.980Z,22.23
2022-09-04T18:02:20.909Z,21.84
2022-09-04T18:04:57.166Z,22.05
2022-09-04T18:08:07.979Z,21.74
2022-09-04T18:10:28.359Z,21.58
2022-09-04T18:13:08.835Z,21.45
2022-09-04T18:16:07.395Z,21.17
2022-09-04T18:18:43.815Z,20.93
2022-09-04T18:21:22.731Z,20.98
2022-09-04T18:24:01.728Z,20.92
2022-09-04T18:26:41.500Z,20.79
2022-09-04T18:32:43.225Z,20.97
2022-09-04T18:37:18.980Z,20.47
2022-09-04T18:37:25.136Z,20.61
2022-09-04T18:39:09.202Z,20.34
2022-09-04T18:48:19.160Z,20.40
2022-09-04T18:50:28.302Z,20.34
2022-09-04T18:50:37.224Z,20.18
2022-09-04T18:51:18.136Z,20.16
2022-09-04T18:53:43.781Z,19.95
2022-09-04T18:56:20.838Z,19.96
2022-09-04T18:58:59.353Z,19.66
2022-09-04T19:01:38.049Z,19.57
2022-09-04T19:04:38.524Z,19.54
2022-09-04T19:07:12.527Z,18.91
2022-09-04T19:10:04.417Z,19.46
2022-09-04T19:12:47.444Z,19.42
2022-09-04T19:15:36.729Z,19.42
2022-09-04T19:18:16.451Z,18.91
2022-09-04T19:20:51.382Z,19.29
2022-09-04T19:23:30.374Z,19.22
2022-09-04T19:26:08.905Z,19.21
2022-09-04T19:28:52.455Z,19.29
2022-09-04T19:31:33.044Z,19.36
2022-09-04T19:35:17.360Z,19.33
2022-09-04T19:41:36.815Z,19.40
2022-09-04T19:46:04.063Z,19.24
2022-09-04T19:46:15.504Z,19.21
2022-09-04T19:46:58.119Z,19.38
2022-09-04T19:52:28.254Z,19.08
2022-09-04T19:53:34.224Z,19.13
2022-09-04T19:55:41.748Z,18.79
2022-09-04T19:58:12.906Z,18.62
2022-09-04T20:00:48.936Z,18.98
2022-09-04T20:03:29.746Z,18.93
2022-09-04T20:06:21.654Z,18.27
2022-09-04T20:08:57.031Z,18.83
2022-09-04T20:11:35.869Z,18.52
2022-09-04T20:14:14.887Z,18.65
2022-09-04T20:17:02.380Z,18.52
2022-09-04T20:19:41.128Z,18.45
2022-09-04T20:22:28.330Z,18.17
2022-09-04T20:25:32.623Z,18.53
2022-09-04T20:28:23.056Z,18.09
2022-09-04T20:31:33.295Z,18.31
2022-09-04T20:34:16.969Z,18.29
2022-09-04T20:36:51.554Z,18.15
2022-09-04T20:39:27.354Z,17.84
2022-09-04T20:42:00.883Z,17.82
2022-09-04T20:44:44.469Z,17.59
2022-09-04T20:52:50.005Z,17.38
2022-09-04T20:52:50.799Z,17.51
2022-09-04T20:53:31.654Z,17.29
2022-09-04T20:56:36.114Z,17.40
2022-09-04T21:03:05.228Z,17.28
2022-09-04T21:03:10.761Z,17.28
2022-09-04T21:05:59.900Z,17.22
2022-09-04T21:08:41.312Z,17.31
2022-09-04T21:11:19.149Z,17.14
2022-09-04T21:14:07.013Z,17.03
2022-09-04T21:16:49.705Z,16.90
2022-09-04T21:19:57.338Z,16.78
2022-09-04T21:22:50.854Z,16.67
2022-09-04T21:25:31.548Z,16.62
2022-09-04T21:28:41.735Z,16.37
2022-09-04T21:31:25.024Z,16.32
2022-09-04T21:34:15.619Z,16.52
2022-09-04T21:36:55.226Z,16.35
2022-09-04T21:40:34.041Z,16.46
2022-09-04T21:43:35.633Z,16.40
2022-09-04T21:46:32.478Z,16.28
2022-09-04T21:49:52.731Z,16.22
2022-09-04T21:53:08.435Z,16.13
2022-09-04T21:58:10.140Z,16.02
2022-09-04T22:02:37.030Z,16.03
2022-09-04T22:02:46.281Z,16.03
2022-09-04T22:05:12.171Z,15.96
2022-09-04T22:12:25.840Z,15.89
2022-09-04T22:13:41.410Z,15.92
2022-09-04T22:14:03.281Z,16.01
2022-09-04T22:16:59.089Z,15.91
2022-09-04T22:20:03.139Z,15.79
2022-09-04T22:23:18.465Z,15.73
2022-09-04T22:26:14.853Z,15.64
2022-09-04T22:29:16.163Z,15.47
2022-09-04T22:32:29.539Z,15.49
2022-09-04T22:35:43.455Z,15.40
2022-09-04T22:38:35.319Z,15.09
2022-09-04T22:41:42.846Z,15.33
2022-09-04T22:44:29.412Z,15.26
2022-09-04T22:47:31.182Z,15.16
2022-09-04T22:50:49.540Z,15.09
2022-09-04T22:54:16.924Z,15.15
2022-09-04T22:56:54.911Z,15.04
2022-09-04T22:59:51.871Z,15.04
2022-09-04T23:07:43.732Z,15.13
2022-09-04T23:13:43.649Z,15.03
2022-09-04T23:13:57.220Z,14.71
2022-09-04T23:16:07.010Z,14.71
2022-09-04T23:21:56.386Z,14.05
2022-09-04T23:26:41.496Z,14.51
2022-09-04T23:26:45.677Z,14.58
2022-09-04T23:28:27.585Z,14.73
2022-09-04T23:31:19.963Z,14.65
2022-09-04T23:34:30.004Z,14.61
2022-09-04T23:37:24.607Z,14.34
2022-09-04T23:40:27.439Z,14.50
2022-09-04T23:43:49.747Z,14.51
2022-09-04T23:46:42.753Z,14.44
2022-09-04T23:49:45.933Z,14.31
2022-09-04T23:52:26.615Z,14.17
2022-09-04T23:55:10.465Z,14.18
2022-09-04T23:57:50.591Z,13.89
